sensor_id;sensor_type;location;lat;lon;timestamp;temperature;humidity
19090;DHT22;9677;50.656;13.064;2023-05-10T00:00:52;16.40;37.30
19090;DHT22;9677;50.656;13.064;2023-05-10T00:03:20;16.50;37.40
19090;DHT22;9677;50.656;13.064;2023-05-10T00:05:49;16.40;37.40
19090;DHT22;9677;50.656;13.064;2023-05-10T00:08:17;16.40;37.50
19090;DHT22;9677;50.656;13.064;2023-05-10T00:10:46;16.30;37.60
19090;DHT22;9677;50.656;13.064;2023-05-10T00:13:14;16.30;37.60
19090;DHT22;9677;50.656;13.064;2023-05-10T00:15:42;16.30;37.70
19090;DHT22;9677;50.656;13.064;2023-05-10T00:18:10;16.30;37.80
19090;DHT22;9677;50.656;13.064;2023-05-10T00:20:38;16.20;37.70
19090;DHT22;9677;50.656;13.064;2023-05-10T00:23:06;16.20;37.80
19090;DHT22;9677;50.656;13.064;2023-05-10T00:25:34;16.20;37.80
19090;DHT22;9677;50.656;13.064;2023-05-10T00:28:04;16.20;37.90
19090;DHT22;9677;50.656;13.064;2023-05-10T00:30:32;16.20;38.00
19090;DHT22;9677;50.656;13.064;2023-05-10T00:33:01;16.10;37.90
19090;DHT22;9677;50.656;13.064;2023-05-10T00:35:29;16.10;38.20
19090;DHT22;9677;50.656;13.064;2023-05-10T00:37:57;16.10;38.10
19090;DHT22;9677;50.656;13.064;2023-05-10T00:40:25;16.10;38.10
19090;DHT22;9677;50.656;13.064;2023-05-10T00:42:58;16.10;38.20
19090;DHT22;9677;50.656;13.064;2023-05-10T00:45:28;16.00;38.20
19090;DHT22;9677;50.656;13.064;2023-05-10T00:47:57;16.00;38.20
19090;DHT22;9677;50.656;13.064;2023-05-10T00:50:26;16.00;38.30
19090;DHT22;9677;50.656;13.064;2023-05-10T00:52:54;16.00;38.30
19090;DHT22;9677;50.656;13.064;2023-05-10T00:55:22;15.90;38.30
19090;DHT22;9677;50.656;13.064;2023-05-10T00:57:52;15.90;38.40
19090;DHT22;9677;50.656;13.064;2023-05-10T01:00:20;15.90;38.40
19090;DHT22;9677;50.656;13.064;2023-05-10T01:02:50;15.90;38.40
19090;DHT22;9677;50.656;13.064;2023-05-10T01:05:18;15.80;38.40
19090;DHT22;9677;50.656;13.064;2023-05-10T01:07:47;15.80;38.50
19090;DHT22;9677;50.656;13.064;2023-05-10T01:10:15;15.80;38.50
19090;DHT22;9677;50.656;13.064;2023-05-10T01:12:45;15.80;38.50
19090;DHT22;9677;50.656;13.064;2023-05-10T01:15:15;15.80;38.70
19090;DHT22;9677;50.656;13.064;2023-05-10T01:17:45;15.70;38.80
19090;DHT22;9677;50.656;13.064;2023-05-10T01:20:15;15.80;38.80
19090;DHT22;9677;50.656;13.064;2023-05-10T01:23:11;15.70;38.80
19090;DHT22;9677;50.656;13.064;2023-05-10T01:26:11;15.70;39.20
19090;DHT22;9677;50.656;13.064;2023-05-10T01:29:05;15.60;39.20
19090;DHT22;9677;50.656;13.064;2023-05-10T01:32:06;15.60;39.00
19090;DHT22;9677;50.656;13.064;2023-05-10T01:34:48;15.60;39.10
19090;DHT22;9677;50.656;13.064;2023-05-10T01:37:26;15.50;38.90
19090;DHT22;9677;50.656;13.064;2023-05-10T01:40:02;15.50;38.90
19090;DHT22;9677;50.656;13.064;2023-05-10T01:42:40;15.50;39.20
19090;DHT22;9677;50.656;13.064;2023-05-10T01:45:17;15.40;39.10
19090;DHT22;9677;50.656;13.064;2023-05-10T01:47:58;15.40;39.10
19090;DHT22;9677;50.656;13.064;2023-05-10T01:50:32;15.40;39.40
19090;DHT22;9677;50.656;13.064;2023-05-10T01:53:03;15.40;39.20
19090;DHT22;9677;50.656;13.064;2023-05-10T01:55:39;15.30;39.20
19090;DHT22;9677;50.656;13.064;2023-05-10T01:58:13;15.30;39.40
19090;DHT22;9677;50.656;13.064;2023-05-10T02:00:44;15.30;39.40
19090;DHT22;9677;50.656;13.064;2023-05-10T02:03:16;15.20;39.40
19090;DHT22;9677;50.656;13.064;2023-05-10T02:05:46;15.20;39.50
19090;DHT22;9677;50.656;13.064;2023-05-10T02:08:17;15.20;39.60
19090;DHT22;9677;50.656;13.064;2023-05-10T02:10:47;15.20;39.60
19090;DHT22;9677;50.656;13.064;2023-05-10T02:13:18;15.10;39.50
19090;DHT22;9677;50.656;13.064;2023-05-10T02:15:48;15.10;39.60
19090;DHT22;9677;50.656;13.064;2023-05-10T02:18:18;15.10;39.80
19090;DHT22;9677;50.656;13.064;2023-05-10T02:20:46;15.00;39.70
19090;DHT22;9677;50.656;13.064;2023-05-10T02:23:16;15.10;39.90
19090;DHT22;9677;50.656;13.064;2023-05-10T02:25:47;15.00;40.00
19090;DHT22;9677;50.656;13.064;2023-05-10T02:28:17;15.00;40.10
19090;DHT22;9677;50.656;13.064;2023-05-10T02:30:47;14.90;39.90
19090;DHT22;9677;50.656;13.064;2023-05-10T02:33:17;14.90;40.30
19090;DHT22;9677;50.656;13.064;2023-05-10T02:35:46;15.00;40.20
19090;DHT22;9677;50.656;13.064;2023-05-10T02:38:15;14.90;40.00
19090;DHT22;9677;50.656;13.064;2023-05-10T02:40:44;14.90;40.10
19090;DHT22;9677;50.656;13.064;2023-05-10T02:43:16;14.90;40.20
19090;DHT22;9677;50.656;13.064;2023-05-10T02:45:47;14.90;40.30
19090;DHT22;9677;50.656;13.064;2023-05-10T02:48:16;14.80;40.20
19090;DHT22;9677;50.656;13.064;2023-05-10T02:50:46;14.80;40.10
19090;DHT22;9677;50.656;13.064;2023-05-10T02:53:22;14.80;40.20
19090;DHT22;9677;50.656;13.064;2023-05-10T02:55:52;14.80;40.30
19090;DHT22;9677;50.656;13.064;2023-05-10T02:58:25;14.80;40.30
19090;DHT22;9677;50.656;13.064;2023-05-10T03:00:53;14.90;40.30
19090;DHT22;9677;50.656;13.064;2023-05-10T03:03:23;14.80;40.20
19090;DHT22;9677;50.656;13.064;2023-05-10T03:05:51;14.80;40.30
19090;DHT22;9677;50.656;13.064;2023-05-10T03:08:22;14.80;40.20
19090;DHT22;9677;50.656;13.064;2023-05-10T03:10:58;14.80;40.20
19090;DHT22;9677;50.656;13.064;2023-05-10T03:13:46;14.70;40.30
19090;DHT22;9677;50.656;13.064;2023-05-10T03:16:24;14.70;40.50
19090;DHT22;9677;50.656;13.064;2023-05-10T03:19:04;14.70;40.50
19090;DHT22;9677;50.656;13.064;2023-05-10T03:21:37;14.70;40.60
19090;DHT22;9677;50.656;13.064;2023-05-10T03:24:07;14.60;40.40
19090;DHT22;9677;50.656;13.064;2023-05-10T03:26:38;14.60;40.50
19090;DHT22;9677;50.656;13.064;2023-05-10T03:29:13;14.60;40.50
19090;DHT22;9677;50.656;13.064;2023-05-10T03:31:42;14.60;40.70
19090;DHT22;9677;50.656;13.064;2023-05-10T03:34:11;14.60;40.70
19090;DHT22;9677;50.656;13.064;2023-05-10T03:36:39;14.60;40.80
19090;DHT22;9677;50.656;13.064;2023-05-10T03:39:07;14.50;40.70
19090;DHT22;9677;50.656;13.064;2023-05-10T03:41:36;14.50;40.70
19090;DHT22;9677;50.656;13.064;2023-05-10T03:44:04;14.40;40.70
19090;DHT22;9677;50.656;13.064;2023-05-10T03:46:32;14.50;40.80
19090;DHT22;9677;50.656;13.064;2023-05-10T03:49:02;14.50;40.90
19090;DHT22;9677;50.656;13.064;2023-05-10T03:51:31;14.50;41.00
19090;DHT22;9677;50.656;13.064;2023-05-10T03:53:59;14.40;40.90
19090;DHT22;9677;50.656;13.064;2023-05-10T03:56:28;14.40;40.90
19090;DHT22;9677;50.656;13.064;2023-05-10T03:58:56;14.40;41.10
19090;DHT22;9677;50.656;13.064;2023-05-10T04:01:24;14.40;41.70
19090;DHT22;9677;50.656;13.064;2023-05-10T04:03:53;14.40;41.10
19090;DHT22;9677;50.656;13.064;2023-05-10T04:06:21;14.40;41.20
19090;DHT22;9677;50.656;13.064;2023-05-10T04:08:51;14.40;41.20
19090;DHT22;9677;50.656;13.064;2023-05-10T04:11:20;14.40;41.30
19090;DHT22;9677;50.656;13.064;2023-05-10T04:13:49;14.30;41.20
19090;DHT22;9677;50.656;13.064;2023-05-10T04:16:17;14.40;41.40
19090;DHT22;9677;50.656;13.064;2023-05-10T04:18:45;14.40;41.40
19090;DHT22;9677;50.656;13.064;2023-05-10T04:21:13;14.40;41.40
19090;DHT22;9677;50.656;13.064;2023-05-10T04:23:41;14.30;41.50
19090;DHT22;9677;50.656;13.064;2023-05-10T04:26:11;14.40;41.60
19090;DHT22;9677;50.656;13.064;2023-05-10T04:28:39;14.30;41.70
19090;DHT22;9677;50.656;13.064;2023-05-10T04:31:09;14.40;42.30
19090;DHT22;9677;50.656;13.064;2023-05-10T04:33:37;14.40;41.80
19090;DHT22;9677;50.656;13.064;2023-05-10T04:36:05;14.40;41.70
19090;DHT22;9677;50.656;13.064;2023-05-10T04:38:34;14.40;41.80
19090;DHT22;9677;50.656;13.064;2023-05-10T04:41:06;14.40;41.80
19090;DHT22;9677;50.656;13.064;2023-05-10T04:43:36;14.40;41.90
19090;DHT22;9677;50.656;13.064;2023-05-10T04:46:05;14.50;41.90
19090;DHT22;9677;50.656;13.064;2023-05-10T04:48:33;14.50;42.00
19090;DHT22;9677;50.656;13.064;2023-05-10T04:51:01;14.50;42.00
19090;DHT22;9677;50.656;13.064;2023-05-10T04:53:30;14.60;42.10
19090;DHT22;9677;50.656;13.064;2023-05-10T04:55:58;14.60;42.10
19090;DHT22;9677;50.656;13.064;2023-05-10T04:58:26;14.60;42.10
19090;DHT22;9677;50.656;13.064;2023-05-10T05:00:55;14.70;42.10
19090;DHT22;9677;50.656;13.064;2023-05-10T05:03:24;14.70;42.20
19090;DHT22;9677;50.656;13.064;2023-05-10T05:05:52;14.70;42.10
19090;DHT22;9677;50.656;13.064;2023-05-10T05:08:20;14.70;42.10
19090;DHT22;9677;50.656;13.064;2023-05-10T05:10:48;14.80;42.10
19090;DHT22;9677;50.656;13.064;2023-05-10T05:13:16;14.80;42.10
19090;DHT22;9677;50.656;13.064;2023-05-10T05:15:45;14.90;42.20
19090;DHT22;9677;50.656;13.064;2023-05-10T05:18:14;14.90;42.20
19090;DHT22;9677;50.656;13.064;2023-05-10T05:20:42;15.00;42.30
19090;DHT22;9677;50.656;13.064;2023-05-10T05:23:10;15.00;42.20
19090;DHT22;9677;50.656;13.064;2023-05-10T05:25:38;15.00;42.10
19090;DHT22;9677;50.656;13.064;2023-05-10T05:28:06;15.10;42.20
19090;DHT22;9677;50.656;13.064;2023-05-10T05:30:34;15.10;42.20
19090;DHT22;9677;50.656;13.064;2023-05-10T05:33:02;15.20;42.40
19090;DHT22;9677;50.656;13.064;2023-05-10T05:35:31;15.20;42.20
19090;DHT22;9677;50.656;13.064;2023-05-10T05:37:59;15.30;42.30
19090;DHT22;9677;50.656;13.064;2023-05-10T05:40:27;15.30;42.20
19090;DHT22;9677;50.656;13.064;2023-05-10T05:42:55;15.40;42.30
19090;DHT22;9677;50.656;13.064;2023-05-10T05:45:23;15.40;42.20
19090;DHT22;9677;50.656;13.064;2023-05-10T05:47:51;15.50;42.20
19090;DHT22;9677;50.656;13.064;2023-05-10T05:50:19;15.50;42.30
19090;DHT22;9677;50.656;13.064;2023-05-10T05:52:49;15.60;42.30
19090;DHT22;9677;50.656;13.064;2023-05-10T05:55:17;15.70;42.30
19090;DHT22;9677;50.656;13.064;2023-05-10T05:57:45;15.70;42.20
19090;DHT22;9677;50.656;13.064;2023-05-10T06:00:14;15.80;42.30
19090;DHT22;9677;50.656;13.064;2023-05-10T06:02:44;15.80;42.40
19090;DHT22;9677;50.656;13.064;2023-05-10T06:05:12;15.90;42.50
19090;DHT22;9677;50.656;13.064;2023-05-10T06:07:41;16.00;42.60
19090;DHT22;9677;50.656;13.064;2023-05-10T06:10:10;16.00;42.70
19090;DHT22;9677;50.656;13.064;2023-05-10T06:12:39;16.10;42.70
19090;DHT22;9677;50.656;13.064;2023-05-10T06:15:08;16.10;42.70
19090;DHT22;9677;50.656;13.064;2023-05-10T06:17:37;16.20;42.60
19090;DHT22;9677;50.656;13.064;2023-05-10T06:20:06;16.20;42.50
19090;DHT22;9677;50.656;13.064;2023-05-10T06:22:35;16.30;42.70
19090;DHT22;9677;50.656;13.064;2023-05-10T06:25:04;16.40;42.50
19090;DHT22;9677;50.656;13.064;2023-05-10T06:27:34;16.40;42.50
19090;DHT22;9677;50.656;13.064;2023-05-10T06:30:02;16.50;42.50
19090;DHT22;9677;50.656;13.064;2023-05-10T06:32:39;16.50;42.40
19090;DHT22;9677;50.656;13.064;2023-05-10T06:35:08;16.60;42.30
19090;DHT22;9677;50.656;13.064;2023-05-10T06:37:36;16.60;42.30
19090;DHT22;9677;50.656;13.064;2023-05-10T06:40:06;16.60;42.30
19090;DHT22;9677;50.656;13.064;2023-05-10T06:42:37;16.70;42.30
19090;DHT22;9677;50.656;13.064;2023-05-10T06:45:06;16.70;42.10
19090;DHT22;9677;50.656;13.064;2023-05-10T06:47:35;16.80;42.20
19090;DHT22;9677;50.656;13.064;2023-05-10T06:50:06;16.90;42.10
19090;DHT22;9677;50.656;13.064;2023-05-10T06:52:34;16.90;42.00
19090;DHT22;9677;50.656;13.064;2023-05-10T06:55:03;17.00;42.00
19090;DHT22;9677;50.656;13.064;2023-05-10T06:57:32;17.00;42.00
19090;DHT22;9677;50.656;13.064;2023-05-10T07:00:02;17.00;41.90
19090;DHT22;9677;50.656;13.064;2023-05-10T07:02:31;17.10;42.00
19090;DHT22;9677;50.656;13.064;2023-05-10T07:05:00;17.20;42.00
19090;DHT22;9677;50.656;13.064;2023-05-10T07:07:29;17.20;42.00
19090;DHT22;9677;50.656;13.064;2023-05-10T07:09:57;17.30;42.00
19090;DHT22;9677;50.656;13.064;2023-05-10T07:12:26;17.30;42.00
19090;DHT22;9677;50.656;13.064;2023-05-10T07:14:55;17.30;42.00
19090;DHT22;9677;50.656;13.064;2023-05-10T07:17:24;17.40;41.90
19090;DHT22;9677;50.656;13.064;2023-05-10T07:19:52;17.50;42.00
19090;DHT22;9677;50.656;13.064;2023-05-10T07:22:20;17.50;42.00
19090;DHT22;9677;50.656;13.064;2023-05-10T07:24:48;17.60;42.00
19090;DHT22;9677;50.656;13.064;2023-05-10T07:27:16;17.70;42.10
19090;DHT22;9677;50.656;13.064;2023-05-10T07:29:44;17.70;42.10
19090;DHT22;9677;50.656;13.064;2023-05-10T07:32:12;17.90;42.10
19090;DHT22;9677;50.656;13.064;2023-05-10T07:34:42;17.90;42.10
19090;DHT22;9677;50.656;13.064;2023-05-10T07:37:10;18.00;42.00
19090;DHT22;9677;50.656;13.064;2023-05-10T07:39:38;18.10;41.90
19090;DHT22;9677;50.656;13.064;2023-05-10T07:42:06;18.20;41.90
19090;DHT22;9677;50.656;13.064;2023-05-10T07:44:34;18.30;41.90
19090;DHT22;9677;50.656;13.064;2023-05-10T07:47:02;18.40;42.00
19090;DHT22;9677;50.656;13.064;2023-05-10T07:49:31;18.50;42.00
19090;DHT22;9677;50.656;13.064;2023-05-10T07:52:00;18.50;41.80
19090;DHT22;9677;50.656;13.064;2023-05-10T07:54:28;18.70;41.90
19090;DHT22;9677;50.656;13.064;2023-05-10T07:56:56;18.80;41.90
19090;DHT22;9677;50.656;13.064;2023-05-10T07:59:24;18.90;41.80
19090;DHT22;9677;50.656;13.064;2023-05-10T08:01:52;19.00;41.60
19090;DHT22;9677;50.656;13.064;2023-05-10T08:04:20;19.00;41.50
19090;DHT22;9677;50.656;13.064;2023-05-10T08:06:48;19.10;41.30
19090;DHT22;9677;50.656;13.064;2023-05-10T08:09:18;19.20;41.30
19090;DHT22;9677;50.656;13.064;2023-05-10T08:11:50;19.30;41.20
19090;DHT22;9677;50.656;13.064;2023-05-10T08:14:18;19.30;41.00
19090;DHT22;9677;50.656;13.064;2023-05-10T08:16:46;19.40;41.00
19090;DHT22;9677;50.656;13.064;2023-05-10T08:19:14;19.40;40.90
19090;DHT22;9677;50.656;13.064;2023-05-10T08:21:45;19.40;40.80
19090;DHT22;9677;50.656;13.064;2023-05-10T08:24:13;19.40;40.80
19090;DHT22;9677;50.656;13.064;2023-05-10T08:26:43;19.40;40.60
19090;DHT22;9677;50.656;13.064;2023-05-10T08:29:11;19.50;40.60
19090;DHT22;9677;50.656;13.064;2023-05-10T08:31:39;19.50;40.60
19090;DHT22;9677;50.656;13.064;2023-05-10T08:34:07;19.50;40.60
19090;DHT22;9677;50.656;13.064;2023-05-10T08:36:35;19.50;40.60
19090;DHT22;9677;50.656;13.064;2023-05-10T08:39:03;19.60;40.60
19090;DHT22;9677;50.656;13.064;2023-05-10T08:41:44;19.60;40.50
19090;DHT22;9677;50.656;13.064;2023-05-10T08:44:12;19.60;40.60
19090;DHT22;9677;50.656;13.064;2023-05-10T08:46:45;19.60;40.50
19090;DHT22;9677;50.656;13.064;2023-05-10T08:49:17;19.60;40.60
19090;DHT22;9677;50.656;13.064;2023-05-10T08:51:50;19.60;40.50
19090;DHT22;9677;50.656;13.064;2023-05-10T08:54:20;19.60;40.40
19090;DHT22;9677;50.656;13.064;2023-05-10T08:56:50;19.60;40.30
19090;DHT22;9677;50.656;13.064;2023-05-10T08:59:18;19.60;40.40
19090;DHT22;9677;50.656;13.064;2023-05-10T09:01:47;19.60;40.40
19090;DHT22;9677;50.656;13.064;2023-05-10T09:04:16;19.60;40.40
19090;DHT22;9677;50.656;13.064;2023-05-10T09:06:44;19.60;40.40
19090;DHT22;9677;50.656;13.064;2023-05-10T09:09:12;19.60;40.40
19090;DHT22;9677;50.656;13.064;2023-05-10T09:11:40;19.60;40.40
19090;DHT22;9677;50.656;13.064;2023-05-10T09:14:10;19.70;40.40
19090;DHT22;9677;50.656;13.064;2023-05-10T09:16:40;19.60;40.40
19090;DHT22;9677;50.656;13.064;2023-05-10T09:19:08;19.70;40.40
19090;DHT22;9677;50.656;13.064;2023-05-10T09:21:37;19.60;40.30
19090;DHT22;9677;50.656;13.064;2023-05-10T09:24:06;19.60;40.30
19090;DHT22;9677;50.656;13.064;2023-05-10T09:26:35;19.70;40.40
19090;DHT22;9677;50.656;13.064;2023-05-10T09:29:15;19.70;40.40
19090;DHT22;9677;50.656;13.064;2023-05-10T09:31:45;19.70;40.30
19090;DHT22;9677;50.656;13.064;2023-05-10T09:34:18;19.60;40.30
19090;DHT22;9677;50.656;13.064;2023-05-10T09:36:52;19.60;40.30
19090;DHT22;9677;50.656;13.064;2023-05-10T09:39:30;19.60;40.30
19090;DHT22;9677;50.656;13.064;2023-05-10T09:42:00;19.60;40.40
19090;DHT22;9677;50.656;13.064;2023-05-10T09:44:32;19.60;40.20
19090;DHT22;9677;50.656;13.064;2023-05-10T09:47:00;19.60;40.20
19090;DHT22;9677;50.656;13.064;2023-05-10T09:49:29;19.60;40.20
19090;DHT22;9677;50.656;13.064;2023-05-10T09:52:01;19.50;40.20
19090;DHT22;9677;50.656;13.064;2023-05-10T09:54:30;19.50;40.30
19090;DHT22;9677;50.656;13.064;2023-05-10T09:56:58;19.50;40.30
19090;DHT22;9677;50.656;13.064;2023-05-10T09:59:27;19.50;40.30
19090;DHT22;9677;50.656;13.064;2023-05-10T10:01:59;19.50;40.30
19090;DHT22;9677;50.656;13.064;2023-05-10T10:04:28;19.40;40.40
19090;DHT22;9677;50.656;13.064;2023-05-10T10:07:03;19.40;40.40
19090;DHT22;9677;50.656;13.064;2023-05-10T10:09:33;19.40;40.50
19090;DHT22;9677;50.656;13.064;2023-05-10T10:12:02;19.40;40.50
19090;DHT22;9677;50.656;13.064;2023-05-10T10:14:31;19.40;40.60
19090;DHT22;9677;50.656;13.064;2023-05-10T10:17:01;19.40;40.50
19090;DHT22;9677;50.656;13.064;2023-05-10T10:19:34;19.40;40.50
19090;DHT22;9677;50.656;13.064;2023-05-10T10:22:04;19.40;40.60
19090;DHT22;9677;50.656;13.064;2023-05-10T10:24:32;19.40;40.60
19090;DHT22;9677;50.656;13.064;2023-05-10T10:27:09;19.40;40.60
19090;DHT22;9677;50.656;13.064;2023-05-10T10:29:50;19.40;40.70
19090;DHT22;9677;50.656;13.064;2023-05-10T10:32:30;19.40;40.70
19090;DHT22;9677;50.656;13.064;2023-05-10T10:35:04;19.40;40.60
19090;DHT22;9677;50.656;13.064;2023-05-10T10:37:44;19.40;40.60
19090;DHT22;9677;50.656;13.064;2023-05-10T10:40:26;19.30;40.80
19090;DHT22;9677;50.656;13.064;2023-05-10T10:42:57;19.30;40.80
19090;DHT22;9677;50.656;13.064;2023-05-10T10:45:25;19.30;40.60
19090;DHT22;9677;50.656;13.064;2023-05-10T10:48:19;19.30;40.60
19090;DHT22;9677;50.656;13.064;2023-05-10T10:50:56;19.30;40.80
19090;DHT22;9677;50.656;13.064;2023-05-10T10:53:26;19.30;40.90
19090;DHT22;9677;50.656;13.064;2023-05-10T10:56:05;19.20;40.80
19090;DHT22;9677;50.656;13.064;2023-05-10T10:58:36;19.20;40.90
19090;DHT22;9677;50.656;13.064;2023-05-10T11:01:13;19.20;40.70
19090;DHT22;9677;50.656;13.064;2023-05-10T11:04:18;19.20;40.90
19090;DHT22;9677;50.656;13.064;2023-05-10T11:06:47;19.20;41.10
19090;DHT22;9677;50.656;13.064;2023-05-10T11:09:15;19.20;40.80
19090;DHT22;9677;50.656;13.064;2023-05-10T11:11:51;19.20;40.80
19090;DHT22;9677;50.656;13.064;2023-05-10T11:14:22;19.20;41.00
19090;DHT22;9677;50.656;13.064;2023-05-10T11:16:51;19.10;40.80
19090;DHT22;9677;50.656;13.064;2023-05-10T11:19:20;19.10;40.90
19090;DHT22;9677;50.656;13.064;2023-05-10T11:21:49;19.10;41.00
19090;DHT22;9677;50.656;13.064;2023-05-10T11:24:20;19.10;41.00
19090;DHT22;9677;50.656;13.064;2023-05-10T11:26:50;19.10;41.10
19090;DHT22;9677;50.656;13.064;2023-05-10T11:29:18;19.10;41.70
19090;DHT22;9677;50.656;13.064;2023-05-10T11:31:48;19.10;41.10
19090;DHT22;9677;50.656;13.064;2023-05-10T11:34:24;19.00;41.10
19090;DHT22;9677;50.656;13.064;2023-05-10T11:36:54;19.00;41.40
19090;DHT22;9677;50.656;13.064;2023-05-10T11:39:26;19.00;41.20
19090;DHT22;9677;50.656;13.064;2023-05-10T11:41:55;19.00;41.30
19090;DHT22;9677;50.656;13.064;2023-05-10T11:44:24;19.00;41.20
19090;DHT22;9677;50.656;13.064;2023-05-10T11:46:58;19.00;42.00
19090;DHT22;9677;50.656;13.064;2023-05-10T11:49:28;19.00;42.10
19090;DHT22;9677;50.656;13.064;2023-05-10T11:52:04;19.00;41.60
19090;DHT22;9677;50.656;13.064;2023-05-10T11:54:33;19.00;42.00
19090;DHT22;9677;50.656;13.064;2023-05-10T11:57:02;19.00;41.60
19090;DHT22;9677;50.656;13.064;2023-05-10T11:59:30;19.00;41.70
19090;DHT22;9677;50.656;13.064;2023-05-10T12:01:58;19.00;41.70
19090;DHT22;9677;50.656;13.064;2023-05-10T12:04:27;19.00;41.80
19090;DHT22;9677;50.656;13.064;2023-05-10T12:06:57;19.00;42.00
19090;DHT22;9677;50.656;13.064;2023-05-10T12:09:25;18.90;41.90
19090;DHT22;9677;50.656;13.064;2023-05-10T12:12:09;18.90;42.00
19090;DHT22;9677;50.656;13.064;2023-05-10T12:14:38;18.90;42.30
19090;DHT22;9677;50.656;13.064;2023-05-10T12:17:06;18.90;42.20
19090;DHT22;9677;50.656;13.064;2023-05-10T12:19:39;18.80;42.30
19090;DHT22;9677;50.656;13.064;2023-05-10T12:22:07;18.80;42.70
19090;DHT22;9677;50.656;13.064;2023-05-10T12:24:35;18.80;42.50
19090;DHT22;9677;50.656;13.064;2023-05-10T12:27:05;18.80;42.80
19090;DHT22;9677;50.656;13.064;2023-05-10T12:29:34;18.70;42.90
19090;DHT22;9677;50.656;13.064;2023-05-10T12:32:02;18.70;42.90
19090;DHT22;9677;50.656;13.064;2023-05-10T12:34:32;18.70;43.10
19090;DHT22;9677;50.656;13.064;2023-05-10T12:37:03;18.70;43.30
19090;DHT22;9677;50.656;13.064;2023-05-10T12:39:39;18.70;43.50
19090;DHT22;9677;50.656;13.064;2023-05-10T12:42:08;18.70;43.90
19090;DHT22;9677;50.656;13.064;2023-05-10T12:44:36;18.60;43.60
19090;DHT22;9677;50.656;13.064;2023-05-10T12:47:04;18.90;43.90
19090;DHT22;9677;50.656;13.064;2023-05-10T12:49:32;18.60;43.90
19090;DHT22;9677;50.656;13.064;2023-05-10T12:52:00;18.60;43.90
19090;DHT22;9677;50.656;13.064;2023-05-10T12:54:30;18.60;44.00
19090;DHT22;9677;50.656;13.064;2023-05-10T12:56:57;18.60;44.30
19090;DHT22;9677;50.656;13.064;2023-05-10T12:59:25;18.60;44.30
19090;DHT22;9677;50.656;13.064;2023-05-10T13:01:53;18.60;44.30
19090;DHT22;9677;50.656;13.064;2023-05-10T13:04:21;18.60;44.40
19090;DHT22;9677;50.656;13.064;2023-05-10T13:06:49;18.60;44.50
19090;DHT22;9677;50.656;13.064;2023-05-10T13:09:17;18.50;44.60
19090;DHT22;9677;50.656;13.064;2023-05-10T13:11:48;18.60;44.70
19090;DHT22;9677;50.656;13.064;2023-05-10T13:14:16;18.60;44.80
19090;DHT22;9677;50.656;13.064;2023-05-10T13:16:47;18.60;44.80
19090;DHT22;9677;50.656;13.064;2023-05-10T13:19:16;18.60;45.00
19090;DHT22;9677;50.656;13.064;2023-05-10T13:21:44;18.60;45.20
19090;DHT22;9677;50.656;13.064;2023-05-10T13:24:12;18.60;45.10
19090;DHT22;9677;50.656;13.064;2023-05-10T13:26:40;18.70;45.10
19090;DHT22;9677;50.656;13.064;2023-05-10T13:29:10;18.70;45.20
19090;DHT22;9677;50.656;13.064;2023-05-10T13:31:38;18.70;45.20
19090;DHT22;9677;50.656;13.064;2023-05-10T13:34:06;18.70;45.10
19090;DHT22;9677;50.656;13.064;2023-05-10T13:36:34;18.70;45.20
19090;DHT22;9677;50.656;13.064;2023-05-10T13:39:02;18.70;45.30
19090;DHT22;9677;50.656;13.064;2023-05-10T13:41:31;18.70;45.30
19090;DHT22;9677;50.656;13.064;2023-05-10T13:43:59;18.70;45.50
19090;DHT22;9677;50.656;13.064;2023-05-10T13:46:29;18.70;45.50
19090;DHT22;9677;50.656;13.064;2023-05-10T13:48:57;18.70;45.60
19090;DHT22;9677;50.656;13.064;2023-05-10T13:51:25;18.80;45.60
19090;DHT22;9677;50.656;13.064;2023-05-10T13:53:53;18.80;45.70
19090;DHT22;9677;50.656;13.064;2023-05-10T13:56:21;18.80;45.70
19090;DHT22;9677;50.656;13.064;2023-05-10T13:58:49;18.80;45.90
19090;DHT22;9677;50.656;13.064;2023-05-10T14:01:17;18.80;45.90
19090;DHT22;9677;50.656;13.064;2023-05-10T14:03:47;18.80;45.90
19090;DHT22;9677;50.656;13.064;2023-05-10T14:06:15;18.80;46.10
19090;DHT22;9677;50.656;13.064;2023-05-10T14:08:43;18.80;46.00
19090;DHT22;9677;50.656;13.064;2023-05-10T14:11:12;18.80;46.00
19090;DHT22;9677;50.656;13.064;2023-05-10T14:13:40;18.80;46.00
19090;DHT22;9677;50.656;13.064;2023-05-10T14:16:08;18.80;46.10
19090;DHT22;9677;50.656;13.064;2023-05-10T14:18:36;18.90;46.20
19090;DHT22;9677;50.656;13.064;2023-05-10T14:21:06;18.90;46.20
19090;DHT22;9677;50.656;13.064;2023-05-10T14:23:33;18.90;46.40
19090;DHT22;9677;50.656;13.064;2023-05-10T14:26:01;18.90;46.30
19090;DHT22;9677;50.656;13.064;2023-05-10T14:28:30;18.90;46.30
19090;DHT22;9677;50.656;13.064;2023-05-10T14:30:59;18.90;46.40
19090;DHT22;9677;50.656;13.064;2023-05-10T14:33:27;18.90;46.30
19090;DHT22;9677;50.656;13.064;2023-05-10T14:35:55;18.90;46.50
19090;DHT22;9677;50.656;13.064;2023-05-10T14:38:25;18.90;46.50
19090;DHT22;9677;50.656;13.064;2023-05-10T14:40:53;19.00;46.60
19090;DHT22;9677;50.656;13.064;2023-05-10T14:43:21;19.00;46.60
19090;DHT22;9677;50.656;13.064;2023-05-10T14:45:49;19.00;46.60
19090;DHT22;9677;50.656;13.064;2023-05-10T14:48:17;19.00;46.60
19090;DHT22;9677;50.656;13.064;2023-05-10T14:50:45;19.00;46.70
19090;DHT22;9677;50.656;13.064;2023-05-10T14:53:13;19.00;46.60
19090;DHT22;9677;50.656;13.064;2023-05-10T14:55:42;19.00;46.70
19090;DHT22;9677;50.656;13.064;2023-05-10T14:58:10;19.00;46.80
19090;DHT22;9677;50.656;13.064;2023-05-10T15:00:38;19.00;46.80
19090;DHT22;9677;50.656;13.064;2023-05-10T15:03:08;19.10;46.80
19090;DHT22;9677;50.656;13.064;2023-05-10T15:05:36;19.10;46.80
19090;DHT22;9677;50.656;13.064;2023-05-10T15:08:05;19.10;46.80
19090;DHT22;9677;50.656;13.064;2023-05-10T15:10:33;19.10;46.80
19090;DHT22;9677;50.656;13.064;2023-05-10T15:13:03;19.10;46.80
19090;DHT22;9677;50.656;13.064;2023-05-10T15:15:31;19.10;46.90
19090;DHT22;9677;50.656;13.064;2023-05-10T15:17:59;19.10;46.80
19090;DHT22;9677;50.656;13.064;2023-05-10T15:20:28;19.10;46.90
19090;DHT22;9677;50.656;13.064;2023-05-10T15:22:56;19.10;47.00
19090;DHT22;9677;50.656;13.064;2023-05-10T15:25:24;19.10;47.10
19090;DHT22;9677;50.656;13.064;2023-05-10T15:27:52;19.10;47.10
19090;DHT22;9677;50.656;13.064;2023-05-10T15:30:22;19.10;47.20
19090;DHT22;9677;50.656;13.064;2023-05-10T15:32:50;19.20;47.40
19090;DHT22;9677;50.656;13.064;2023-05-10T15:35:18;19.20;47.30
19090;DHT22;9677;50.656;13.064;2023-05-10T15:37:47;19.20;47.30
19090;DHT22;9677;50.656;13.064;2023-05-10T15:40:16;19.20;47.40
19090;DHT22;9677;50.656;13.064;2023-05-10T15:42:44;19.20;47.40
19090;DHT22;9677;50.656;13.064;2023-05-10T15:45:12;19.20;47.40
19090;DHT22;9677;50.656;13.064;2023-05-10T15:47:43;19.20;47.40